Saginaw, Washington
Current Conditions -  °F | °C
As of 6:53 PM on Sunday 23 Nov 2014 (Local Time) from KSHN Reporting Station
Clear Clear  
Wind Chill: 38°   Ceiling: Unl
Heat Index: 44°   Visibility: 10mi
Dew Point: 41°   Wind: 13mph
Humidity: 89%   Direction: 230°SW
Pressure: 30.24"   Gusts: NA
Location:  46.9859°N, 123.385°W
Report Text: KSHN 240253Z AUTO 23011KT 10SM CLR 07/05 A3024 RMK AO2 SLP242 T00670050 51021
Loading
Personal Weather Stations






























Interactive Weather Map New forecast layout! Learn more

10-Day Weather Forecast

Advertisements
Track Severe Weather on mobile